createdAt,value
2022-10-02T00:01:28.760Z,12.65
2022-10-02T00:03:58.990Z,12.69
2022-10-02T00:06:41.236Z,12.72
2022-10-02T00:09:17.142Z,12.75
2022-10-02T00:11:48.841Z,12.77
2022-10-02T00:14:21.329Z,12.79
2022-10-02T00:16:54.853Z,12.81
2022-10-02T00:19:23.019Z,12.88
2022-10-02T00:22:20.326Z,12.92
2022-10-02T00:24:54.622Z,12.93
2022-10-02T00:27:50.930Z,12.94
2022-10-02T00:30:19.930Z,12.90
2022-10-02T00:33:06.102Z,12.84
2022-10-02T00:35:56.980Z,12.79
2022-10-02T00:38:39.076Z,12.77
2022-10-02T00:41:24.054Z,12.69
2022-10-02T00:44:15.700Z,12.56
2022-10-02T00:46:53.806Z,12.46
2022-10-02T00:49:52.095Z,12.39
2022-10-02T00:52:43.014Z,12.33
2022-10-02T00:55:34.723Z,12.31
2022-10-02T00:58:34.561Z,12.32
2022-10-02T01:01:09.843Z,12.30
2022-10-02T01:03:41.391Z,12.28
2022-10-02T01:06:13.127Z,12.25
2022-10-02T01:08:41.836Z,12.24
2022-10-02T01:11:10.072Z,12.22
2022-10-02T01:13:38.267Z,12.19
2022-10-02T01:16:12.145Z,12.17
2022-10-02T01:18:40.612Z,12.17
2022-10-02T01:21:14.219Z,12.14
2022-10-02T01:23:52.990Z,12.12
2022-10-02T01:26:22.494Z,12.12
2022-10-02T01:28:51.242Z,12.11
2022-10-02T01:31:19.466Z,12.10
2022-10-02T01:33:49.850Z,12.08
2022-10-02T01:36:18.574Z,12.08
2022-10-02T01:38:49.244Z,12.08
2022-10-02T01:41:17.308Z,12.07
2022-10-02T01:43:50.286Z,12.07
2022-10-02T01:46:33.077Z,12.07
2022-10-02T01:49:21.113Z,12.07
2022-10-02T01:52:14.377Z,12.06
2022-10-02T01:54:57.876Z,12.07
2022-10-02T01:57:39.263Z,12.05
2022-10-02T02:00:12.435Z,12.05
2022-10-02T02:02:53.463Z,12.07
2022-10-02T02:05:41.602Z,12.10
2022-10-02T02:08:16.780Z,12.10
2022-10-02T02:10:53.178Z,12.05
2022-10-02T02:13:27.736Z,12.05
2022-10-02T02:16:05.458Z,12.06
2022-10-02T02:18:40.521Z,12.04
2022-10-02T02:21:16.312Z,12.01
2022-10-02T02:23:45.327Z,11.99
2022-10-02T02:26:16.875Z,11.98
2022-10-02T02:28:51.450Z,11.97
2022-10-02T02:31:26.264Z,11.97
2022-10-02T02:33:59.473Z,11.96
2022-10-02T02:36:35.622Z,11.95
2022-10-02T02:39:09.137Z,11.94
2022-10-02T02:41:43.180Z,11.94
2022-10-02T02:44:18.517Z,11.95
2022-10-02T02:47:06.678Z,11.94
2022-10-02T02:49:51.221Z,11.93
2022-10-02T02:52:23.871Z,11.92
2022-10-02T02:54:57.440Z,11.93
2022-10-02T02:57:33.423Z,11.95
2022-10-02T03:00:04.007Z,12.02
2022-10-02T03:02:33.703Z,12.08
2022-10-02T03:05:01.877Z,12.09
2022-10-02T03:07:30.169Z,12.10
2022-10-02T03:10:07.615Z,12.12
2022-10-02T03:12:53.344Z,12.15
2022-10-02T03:15:30.095Z,12.22
2022-10-02T03:18:28.159Z,12.31
2022-10-02T03:21:09.360Z,12.28
2022-10-02T03:23:54.187Z,12.26
2022-10-02T03:26:36.508Z,12.30
2022-10-02T03:29:12.351Z,12.33
2022-10-02T03:31:41.616Z,12.35
2022-10-02T03:34:11.402Z,12.38
2022-10-02T03:36:39.796Z,12.35
2022-10-02T03:39:25.864Z,12.27
2022-10-02T03:41:54.884Z,12.25
2022-10-02T03:44:22.977Z,12.20
2022-10-02T03:46:51.072Z,12.17
2022-10-02T03:49:20.860Z,12.18
2022-10-02T03:51:49.335Z,12.18
2022-10-02T03:54:21.160Z,12.18
2022-10-02T03:56:56.985Z,12.18
2022-10-02T03:59:38.350Z,12.16
2022-10-02T04:02:12.678Z,12.16
2022-10-02T04:04:49.225Z,12.19
2022-10-02T04:07:22.965Z,12.22
2022-10-02T04:09:58.985Z,12.22
2022-10-02T04:12:34.663Z,12.22
2022-10-02T04:15:10.744Z,12.20
2022-10-02T04:17:45.222Z,12.20
2022-10-02T04:20:21.349Z,12.19
2022-10-02T04:22:55.908Z,12.20
2022-10-02T04:25:27.923Z,12.18
2022-10-02T04:28:00.738Z,12.18
2022-10-02T04:30:30.086Z,12.17
2022-10-02T04:32:59.639Z,12.16
2022-10-02T04:35:37.279Z,12.15
2022-10-02T04:38:33.286Z,12.13
2022-10-02T04:41:26.150Z,12.13
2022-10-02T04:44:09.058Z,12.12
2022-10-02T04:46:58.742Z,12.12
2022-10-02T04:49:57.060Z,12.10
2022-10-02T04:52:52.421Z,12.09
2022-10-02T04:55:53.777Z,12.10
2022-10-02T04:58:49.567Z,12.08
2022-10-02T05:01:31.087Z,12.10
2022-10-02T05:04:30.893Z,12.08
2022-10-02T05:07:17.018Z,12.09
2022-10-02T05:09:58.438Z,12.09
2022-10-02T05:12:48.836Z,12.09
2022-10-02T05:15:54.456Z,12.09
2022-10-02T05:18:46.997Z,12.06
2022-10-02T05:21:31.855Z,12.03
2022-10-02T05:24:18.066Z,12.00
2022-10-02T05:27:08.362Z,11.99
2022-10-02T05:29:59.009Z,11.97
2022-10-02T05:33:04.279Z,11.97
2022-10-02T05:36:09.566Z,11.94
2022-10-02T05:39:02.299Z,11.91
2022-10-02T05:41:40.823Z,11.92
2022-10-02T05:44:16.580Z,11.89
2022-10-02T05:46:50.814Z,11.91
2022-10-02T05:49:22.350Z,11.92
2022-10-02T05:52:00.615Z,11.91
2022-10-02T05:54:44.452Z,11.92
2022-10-02T05:57:22.465Z,11.93
2022-10-02T06:00:04.142Z,11.93
2022-10-02T06:02:42.436Z,11.92
2022-10-02T06:05:18.900Z,11.91
2022-10-02T06:07:51.041Z,11.91
2022-10-02T06:10:23.054Z,11.89
2022-10-02T06:12:58.237Z,11.91
2022-10-02T06:15:33.764Z,11.89
2022-10-02T06:18:07.695Z,11.89
2022-10-02T06:20:42.759Z,11.93
2022-10-02T06:23:16.433Z,11.94
2022-10-02T06:25:49.097Z,11.95
2022-10-02T06:28:23.751Z,11.97
2022-10-02T06:31:02.804Z,11.98
2022-10-02T06:33:34.019Z,12.01
2022-10-02T06:36:30.114Z,12.03
2022-10-02T06:39:28.027Z,12.06
2022-10-02T06:42:07.833Z,12.09
2022-10-02T06:44:47.520Z,12.13
2022-10-02T06:47:35.363Z,12.16
2022-10-02T06:50:24.661Z,12.16
2022-10-02T06:53:00.806Z,12.26
2022-10-02T06:55:43.448Z,12.30
2022-10-02T06:58:35.513Z,12.39
2022-10-02T07:01:12.842Z,12.46
2022-10-02T07:04:00.704Z,12.56
2022-10-02T07:06:43.730Z,12.68
2022-10-02T07:09:52.473Z,12.83
2022-10-02T07:12:54.013Z,12.99
2022-10-02T07:16:13.934Z,13.15
2022-10-02T07:19:11.882Z,13.37
2022-10-02T07:21:52.008Z,13.53
2022-10-02T07:24:45.784Z,13.63
2022-10-02T07:27:21.019Z,13.66
2022-10-02T07:29:59.372Z,13.71
2022-10-02T07:32:47.394Z,13.74
2022-10-02T07:35:42.263Z,13.80
2022-10-02T07:38:44.088Z,13.82
2022-10-02T07:41:40.957Z,13.83
2022-10-02T07:44:37.136Z,13.88
2022-10-02T07:47:19.097Z,13.89
2022-10-02T07:49:58.265Z,13.92
2022-10-02T07:52:39.687Z,13.94
2022-10-02T07:55:20.262Z,13.96
2022-10-02T07:58:01.599Z,14.04
2022-10-02T08:00:36.643Z,14.15
2022-10-02T08:03:13.619Z,14.31
2022-10-02T08:05:45.574Z,14.43
2022-10-02T08:08:23.129Z,14.51
2022-10-02T08:10:57.634Z,14.55
2022-10-02T08:13:32.848Z,14.40
2022-10-02T08:16:04.627Z,14.24
2022-10-02T08:18:37.369Z,14.15
2022-10-02T08:21:11.701Z,14.13
2022-10-02T08:23:48.465Z,14.14
2022-10-02T08:26:22.300Z,14.13
2022-10-02T08:29:01.161Z,14.14
2022-10-02T08:31:29.517Z,14.21
2022-10-02T08:33:58.533Z,14.29
2022-10-02T08:36:48.927Z,14.37
2022-10-02T08:40:01.481Z,14.35
2022-10-02T08:43:17.435Z,14.28
2022-10-02T08:46:24.901Z,14.28
2022-10-02T08:49:34.449Z,14.28
2022-10-02T08:52:53.662Z,14.26
2022-10-02T08:55:58.949Z,14.22
2022-10-02T08:59:08.709Z,14.22
2022-10-02T09:02:27.613Z,14.27
2022-10-02T09:05:43.059Z,14.31
2022-10-02T09:08:44.918Z,14.40
2022-10-02T09:12:13.022Z,14.59
2022-10-02T09:14:55.614Z,14.70
2022-10-02T09:17:49.633Z,14.78
2022-10-02T09:21:11.415Z,14.79
2022-10-02T09:24:43.233Z,14.77
2022-10-02T09:28:10.144Z,14.78
2022-10-02T09:31:33.266Z,14.87
2022-10-02T09:35:02.078Z,14.92
2022-10-02T09:38:21.165Z,14.99
2022-10-02T09:41:38.989Z,14.96
2022-10-02T09:45:00.410Z,14.94
2022-10-02T09:48:31.145Z,14.87
2022-10-02T09:51:41.794Z,14.91
2022-10-02T09:54:47.234Z,14.91
2022-10-02T09:57:55.394Z,14.95
2022-10-02T10:01:12.669Z,15.06
2022-10-02T10:05:04.468Z,15.20
2022-10-02T10:08:23.197Z,15.19
2022-10-02T10:11:17.250Z,15.25
2022-10-02T10:14:34.830Z,15.30
2022-10-02T10:17:56.075Z,15.39
2022-10-02T10:21:07.734Z,15.49
2022-10-02T10:24:15.666Z,15.52
2022-10-02T10:27:08.096Z,15.58
2022-10-02T10:30:08.636Z,15.59
2022-10-02T10:33:28.084Z,15.69
2022-10-02T10:37:01.242Z,15.78
2022-10-02T10:40:10.346Z,15.86
2022-10-02T10:43:16.885Z,16.04
2022-10-02T10:46:18.177Z,16.35
2022-10-02T10:49:18.272Z,16.56
2022-10-02T10:51:54.287Z,16.89
2022-10-02T10:54:58.242Z,17.08
2022-10-02T10:57:51.922Z,17.28
2022-10-02T11:00:23.503Z,17.52
2022-10-02T11:03:46.323Z,17.82
2022-10-02T11:06:51.809Z,17.90
2022-10-02T11:10:26.072Z,17.81
2022-10-02T11:13:19.178Z,17.87
2022-10-02T11:16:26.095Z,18.05
2022-10-02T11:19:34.393Z,18.30
2022-10-02T11:22:41.986Z,18.66
2022-10-02T11:25:58.145Z,18.92
2022-10-02T11:29:09.263Z,19.06
2022-10-02T11:32:14.328Z,19.06
2022-10-02T11:35:16.980Z,18.92
2022-10-02T11:38:13.085Z,18.88
2022-10-02T11:41:07.592Z,18.75
2022-10-02T11:44:06.371Z,18.52
2022-10-02T11:47:01.997Z,18.15
2022-10-02T11:50:37.445Z,17.77
2022-10-02T11:54:03.126Z,17.95
2022-10-02T11:56:46.449Z,18.31
2022-10-02T11:59:40.556Z,18.84
2022-10-02T12:02:16.933Z,19.37
2022-10-02T12:05:15.629Z,19.74
2022-10-02T12:07:53.315Z,19.59
2022-10-02T12:10:42.049Z,19.68
2022-10-02T12:13:47.081Z,19.96
2022-10-02T12:16:26.641Z,20.37
2022-10-02T12:19:12.779Z,20.83
2022-10-02T12:22:14.982Z,21.28
2022-10-02T12:25:16.193Z,21.35
2022-10-02T12:27:58.366Z,20.88
2022-10-02T12:30:36.159Z,20.28
2022-10-02T12:33:32.255Z,20.04
2022-10-02T12:36:27.749Z,20.05
2022-10-02T12:39:12.923Z,20.55
2022-10-02T12:42:12.239Z,20.99
2022-10-02T12:45:12.711Z,21.49
2022-10-02T12:47:57.018Z,21.94
2022-10-02T12:51:02.151Z,22.32
2022-10-02T12:54:09.597Z,22.61
2022-10-02T12:57:39.354Z,22.72
2022-10-02T13:00:15.728Z,23.26
2022-10-02T13:03:36.945Z,23.61
2022-10-02T13:06:45.381Z,23.94
2022-10-02T13:09:36.397Z,24.17
2022-10-02T13:12:41.020Z,24.51
2022-10-02T13:15:37.320Z,24.40
2022-10-02T13:18:25.454Z,24.21
2022-10-02T13:21:04.271Z,23.48
2022-10-02T13:23:42.539Z,22.44
2022-10-02T13:26:22.338Z,21.65
2022-10-02T13:29:32.972Z,20.89
2022-10-02T13:32:46.962Z,20.34
2022-10-02T13:35:44.305Z,21.39
2022-10-02T13:38:43.922Z,22.53
2022-10-02T13:41:26.645Z,23.22
2022-10-02T13:44:08.961Z,23.97
2022-10-02T13:47:20.863Z,24.65
2022-10-02T13:50:17.800Z,24.76
2022-10-02T13:53:13.458Z,23.51
2022-10-02T13:55:47.093Z,22.41
2022-10-02T13:58:37.225Z,21.44
2022-10-02T14:01:20.591Z,20.72
2022-10-02T14:04:11.410Z,20.16
2022-10-02T14:06:45.946Z,19.75
2022-10-02T14:09:39.547Z,19.63
2022-10-02T14:12:37.642Z,19.46
2022-10-02T14:15:33.625Z,19.09
2022-10-02T14:18:46.721Z,18.95
2022-10-02T14:21:31.231Z,18.90
2022-10-02T14:24:45.938Z,18.93
2022-10-02T14:27:40.996Z,18.98
2022-10-02T14:30:24.234Z,19.01
2022-10-02T14:33:07.905Z,18.93
2022-10-02T14:35:49.171Z,18.73
2022-10-02T14:38:41.571Z,18.53
2022-10-02T14:41:37.955Z,18.33
2022-10-02T14:44:52.138Z,18.21
2022-10-02T14:47:56.264Z,18.20
2022-10-02T14:50:57.223Z,18.24
2022-10-02T14:54:19.999Z,18.24
2022-10-02T14:57:17.363Z,18.26
2022-10-02T15:00:18.566Z,18.29
2022-10-02T15:04:07.010Z,18.27
2022-10-02T15:07:00.827Z,18.26
2022-10-02T15:09:40.368Z,18.10
2022-10-02T15:12:21.255Z,18.02
2022-10-02T15:15:12.804Z,18.25
2022-10-02T15:17:56.613Z,18.45
2022-10-02T15:20:40.641Z,18.60
2022-10-02T15:23:16.896Z,18.65
2022-10-02T15:26:14.298Z,18.62
2022-10-02T15:28:56.623Z,18.53
2022-10-02T15:31:38.208Z,18.49
2022-10-02T15:34:20.192Z,18.46
2022-10-02T15:37:14.087Z,18.42
2022-10-02T15:40:06.428Z,18.67
2022-10-02T15:42:56.170Z,19.51
2022-10-02T15:45:59.702Z,19.61
2022-10-02T15:49:02.205Z,19.23
2022-10-02T15:52:00.989Z,19.41
2022-10-02T15:54:51.630Z,20.27
2022-10-02T15:57:44.470Z,20.94
2022-10-02T16:00:23.848Z,21.30
2022-10-02T16:03:02.994Z,21.60
2022-10-02T16:05:56.485Z,21.22
2022-10-02T16:08:57.067Z,20.37
2022-10-02T16:12:05.110Z,19.52
2022-10-02T16:14:45.915Z,19.00
2022-10-02T16:17:47.034Z,18.55
2022-10-02T16:20:41.450Z,18.23
2022-10-02T16:23:30.341Z,17.92
2022-10-02T16:26:28.189Z,17.59
2022-10-02T16:29:17.115Z,17.30
2022-10-02T16:32:02.173Z,17.08
2022-10-02T16:34:45.684Z,16.91
2022-10-02T16:37:25.106Z,16.75
2022-10-02T16:40:00.662Z,16.62
2022-10-02T16:42:42.446Z,16.46
2022-10-02T16:45:43.499Z,16.31
2022-10-02T16:48:16.410Z,16.15
2022-10-02T16:51:13.715Z,15.99
2022-10-02T16:53:49.121Z,15.84
2022-10-02T16:56:24.614Z,15.71
2022-10-02T16:59:01.617Z,15.61
2022-10-02T17:01:35.914Z,15.51
2022-10-02T17:04:22.090Z,15.42
2022-10-02T17:07:00.113Z,15.35
2022-10-02T17:09:39.864Z,15.29
2022-10-02T17:12:21.108Z,15.23
2022-10-02T17:14:57.210Z,15.15
2022-10-02T17:17:34.914Z,15.06
2022-10-02T17:20:18.310Z,14.94
2022-10-02T17:22:58.402Z,14.82
2022-10-02T17:25:33.104Z,14.74
2022-10-02T17:28:09.606Z,14.64
2022-10-02T17:30:58.526Z,14.55
2022-10-02T17:33:32.335Z,14.49
2022-10-02T17:36:12.902Z,14.39
2022-10-02T17:39:14.987Z,14.30
2022-10-02T17:41:53.014Z,14.24
2022-10-02T17:44:47.492Z,14.17
2022-10-02T17:47:38.799Z,14.12
2022-10-02T17:50:32.418Z,14.05
2022-10-02T17:53:34.616Z,14.02
2022-10-02T17:56:28.968Z,13.94
2022-10-02T17:59:56.020Z,13.87
2022-10-02T18:03:00.452Z,13.79
2022-10-02T18:05:39.712Z,13.73
2022-10-02T18:08:30.603Z,13.68
2022-10-02T18:11:08.948Z,13.64
2022-10-02T18:13:58.677Z,13.58
2022-10-02T18:16:40.825Z,13.50
2022-10-02T18:19:27.682Z,13.44
2022-10-02T18:22:22.161Z,13.42
2022-10-02T18:25:19.302Z,13.38
2022-10-02T18:28:18.837Z,13.30
2022-10-02T18:30:58.867Z,13.29
2022-10-02T18:34:21.573Z,13.23
2022-10-02T18:37:10.475Z,13.19
2022-10-02T18:39:44.951Z,13.19
2022-10-02T18:42:41.050Z,13.11
2022-10-02T18:45:34.901Z,13.08
2022-10-02T18:48:23.344Z,13.05
2022-10-02T18:51:16.677Z,13.04
2022-10-02T18:54:05.230Z,13.03
2022-10-02T18:56:55.910Z,13.01
2022-10-02T18:59:41.575Z,12.97
2022-10-02T19:02:27.347Z,12.95
2022-10-02T19:05:25.755Z,12.91
2022-10-02T19:08:08.755Z,12.89
2022-10-02T19:10:47.526Z,12.89
2022-10-02T19:13:25.046Z,12.86
2022-10-02T19:15:59.018Z,12.83
2022-10-02T19:18:31.268Z,12.84
2022-10-02T19:21:06.672Z,12.84
2022-10-02T19:23:39.794Z,12.81
2022-10-02T19:26:19.015Z,12.79
2022-10-02T19:28:50.843Z,12.75
2022-10-02T19:31:24.241Z,12.71
2022-10-02T19:33:57.310Z,12.69
2022-10-02T19:36:28.286Z,12.67
2022-10-02T19:39:01.366Z,12.66
2022-10-02T19:41:35.369Z,12.70
2022-10-02T19:44:07.164Z,12.75
2022-10-02T19:46:39.693Z,12.76
2022-10-02T19:49:20.291Z,12.70
2022-10-02T19:51:48.861Z,12.64
2022-10-02T19:54:21.820Z,12.61
2022-10-02T19:56:55.037Z,12.58
2022-10-02T19:59:29.629Z,12.56
2022-10-02T20:02:03.615Z,12.53
2022-10-02T20:04:33.670Z,12.50
2022-10-02T20:07:02.993Z,12.48
2022-10-02T20:09:37.383Z,12.49
2022-10-02T20:12:11.847Z,12.46
2022-10-02T20:14:44.970Z,12.44
2022-10-02T20:17:13.885Z,12.42
2022-10-02T20:19:48.240Z,12.41
2022-10-02T20:22:24.985Z,12.38
2022-10-02T20:24:59.514Z,12.34
2022-10-02T20:27:39.467Z,12.32
2022-10-02T20:30:14.512Z,12.29
2022-10-02T20:32:51.216Z,12.25
2022-10-02T20:35:29.138Z,12.22
2022-10-02T20:38:02.106Z,12.18
2022-10-02T20:40:36.825Z,12.18
2022-10-02T20:43:09.887Z,12.15
2022-10-02T20:45:47.050Z,12.14
2022-10-02T20:49:07.933Z,12.10
2022-10-02T20:52:14.973Z,12.07
2022-10-02T20:54:54.045Z,12.07
2022-10-02T20:58:04.625Z,12.04
2022-10-02T21:00:52.071Z,12.01
2022-10-02T21:03:56.722Z,12.00
2022-10-02T21:07:07.061Z,11.97
2022-10-02T21:10:28.490Z,11.94
2022-10-02T21:13:48.392Z,11.95
2022-10-02T21:16:49.872Z,11.95
2022-10-02T21:19:41.804Z,11.96
2022-10-02T21:23:01.405Z,12.01
2022-10-02T21:26:18.084Z,12.07
2022-10-02T21:29:36.797Z,12.09
2022-10-02T21:32:51.084Z,12.08
2022-10-02T21:35:41.193Z,12.04
2022-10-02T21:38:52.748Z,11.98
2022-10-02T21:42:18.462Z,11.95
2022-10-02T21:45:35.118Z,11.89
2022-10-02T21:49:05.889Z,11.86
2022-10-02T21:52:07.445Z,11.82
2022-10-02T21:55:39.460Z,11.78
2022-10-02T21:59:08.005Z,11.73
2022-10-02T22:02:09.286Z,11.71
2022-10-02T22:05:22.663Z,11.70
2022-10-02T22:08:01.005Z,11.67
2022-10-02T22:10:36.906Z,11.63
2022-10-02T22:13:23.254Z,11.61
2022-10-02T22:16:05.064Z,11.57
2022-10-02T22:18:47.848Z,11.55
2022-10-02T22:21:36.519Z,11.55
2022-10-02T22:24:25.232Z,11.53
2022-10-02T22:27:12.633Z,11.53
2022-10-02T22:29:51.151Z,11.53
2022-10-02T22:33:07.282Z,11.51
2022-10-02T22:36:11.801Z,11.49
2022-10-02T22:38:45.426Z,11.55
2022-10-02T22:41:27.358Z,11.63
2022-10-02T22:44:00.022Z,11.74
2022-10-02T22:46:46.979Z,11.82
2022-10-02T22:49:24.576Z,11.86
2022-10-02T22:52:01.311Z,11.94
2022-10-02T22:54:40.025Z,12.00
2022-10-02T22:57:19.240Z,12.06
2022-10-02T22:59:55.668Z,12.09
2022-10-02T23:02:32.449Z,12.10
2022-10-02T23:05:10.909Z,12.07
2022-10-02T23:07:49.590Z,12.03
2022-10-02T23:10:30.102Z,11.99
2022-10-02T23:13:06.534Z,11.98
2022-10-02T23:15:43.217Z,11.98
2022-10-02T23:18:32.345Z,11.96
2022-10-02T23:21:11.946Z,11.92
2022-10-02T23:23:50.920Z,11.87
2022-10-02T23:26:28.644Z,11.81
2022-10-02T23:29:14.979Z,11.76
2022-10-02T23:31:52.854Z,11.73
2022-10-02T23:34:36.331Z,11.69
2022-10-02T23:37:18.751Z,11.66
2022-10-02T23:39:55.628Z,11.65
2022-10-02T23:42:32.979Z,11.63
2022-10-02T23:45:08.319Z,11.59
2022-10-02T23:47:54.769Z,11.54
2022-10-02T23:50:29.554Z,11.52
2022-10-02T23:53:38.599Z,11.47
2022-10-02T23:56:24.296Z,11.44
2022-10-02T23:59:12.557Z,11.42
